Main page
METAR-TAF:

METAR-TAF

Airports :

Dundee Airport

Dundee, Scotland

latitude: 56-27N, longitude: 003-01W, elevation: 4 m

Current weather observation

The report was made 17 hours and 33 minutes ago, at 14:20 UTC
Wind 17 kt from the West
Temperature 18°C
Humidity 64%
Pressure 994 hPa
Visibility 10 km or more
Few clouds at a height of 2000 ft
Scattered clouds at a height of 3000 ft

METAR: EGPN 171420Z 26017KT 9999 FEW020 SCT030 18/11 Q0994

Time: 08:53 (07:53 UTC)

Forecast

The report was made 17 hours and 52 minutes ago, at 14:01 UTC
Forecast valid from 17 at 15 UTC to 17 at 21 UTC
Wind 18 kt from the West/Southwest
Visibility 10 km or more
Few clouds at a height of 3000 ft, Cumulonimbus.
Scattered clouds at a height of 4000 ft
Temporary
from 17 at 15 UTC to 17 at 20 UTC
Wind 20 kt from the West with gusts up to 30 kt
Visibility: 6000 m
rain showers

TAF: EGPN 171401Z 1715/1721 25018KT 9999 FEW030CB SCT040 TEMPO 1715/1720 26020G30KT 6000 SHRA

Weather observations and forecasts of more than 4000 airports (METAR and TAF reports).

The available stations are represented by yellow and red dots on the map.

Hover mouse over dot to see the name of the station.

Then click to see weather observations and forecasts.

To change the map : click on the green buttons with a black cross to zoom in, on the green button with a dash to zoom out, or on the green arrows for adjacent maps.


METAR-TAF: